Time;durP1;ratioP1;P1;durP2;ratioP2;P2;SDS_P1;SDS_P2;PMS_P1;PMS_P2;Temp;Humidity;BMP_temperature;BMP_pressure;BME280_temperature;BME280_humidity;BME280_pressure;Samples;Min_cycle;Max_cycle;Signal;HPM_P1;HPM_P2
2024/03/01 00:02:05;;;;;;;18.30;10.77;;;;;;;;;;6114756;29;20623;-60
2024/03/01 00:05:09;;;;;;;19.60;10.40;;;;;;;;;;6114143;29;20292;-61
2024/03/01 00:08:13;;;;;;;16.90;9.87;;;;;;;;;;6114742;29;20621;-60
2024/03/01 00:11:19;;;;;;;17.53;10.43;;;;;;;;;;6116558;29;20299;-60
2024/03/01 00:14:23;;;;;;;16.33;10.03;;;;;;;;;;6137790;29;20445;-60
2024/03/01 00:17:27;;;;;;;18.47;10.87;;;;;;;;;;6138049;29;20300;-61
2024/03/01 00:20:31;;;;;;;19.50;11.03;;;;;;;;;;6138081;29;20566;-60
2024/03/01 00:23:35;;;;;;;20.13;10.93;;;;;;;;;;6138169;29;20559;-60
2024/03/01 00:26:45;;;;;;;19.57;11.77;;;;;;;;;;6141933;29;20326;-60
2024/03/01 00:29:50;;;;;;;22.10;11.33;;;;;;;;;;6142397;29;20301;-61
2024/03/01 00:32:54;;;;;;;18.80;11.57;;;;;;;;;;6142782;29;20300;-61
2024/03/01 00:35:58;;;;;;;20.73;11.20;;;;;;;;;;6142148;29;20474;-60
2024/03/01 00:39:02;;;;;;;16.83;10.63;;;;;;;;;;6142454;29;20309;-60
2024/03/01 00:42:09;;;;;;;19.77;11.30;;;;;;;;;;6142687;29;20302;-61
2024/03/01 00:45:12;;;;;;;18.43;11.17;;;;;;;;;;6141802;29;20297;-60
2024/03/01 00:48:17;;;;;;;22.17;11.67;;;;;;;;;;6142224;29;20304;-61
2024/03/01 00:51:20;;;;;;;22.87;12.13;;;;;;;;;;6141696;29;20299;-60
2024/03/01 00:54:24;;;;;;;21.40;10.90;;;;;;;;;;6141661;29;20566;-61
2024/03/01 00:57:29;;;;;;;20.17;10.97;;;;;;;;;;6142074;29;20313;-61
2024/03/01 01:00:34;;;;;;;23.33;11.97;;;;;;;;;;6140059;29;20440;-60
2024/03/01 01:03:38;;;;;;;23.00;12.40;;;;;;;;;;6141893;29;20345;-61
2024/03/01 01:06:43;;;;;;;24.43;11.63;;;;;;;;;;6140763;29;20303;-61
2024/03/01 01:09:47;;;;;;;22.03;11.80;;;;;;;;;;6141226;29;20288;-60
2024/03/01 01:12:53;;;;;;;29.15;15.35;;;;;;;;;;6124146;29;20461;-61
2024/03/01 01:15:57;;;;;;;21.93;12.47;;;;;;;;;;6117194;29;20299;-61
2024/03/01 01:19:02;;;;;;;26.27;12.13;;;;;;;;;;6099869;29;20292;-61
2024/03/01 01:22:06;;;;;;;17.77;10.80;;;;;;;;;;6094352;29;20605;-61
2024/03/01 01:25:10;;;;;;;22.80;11.17;;;;;;;;;;6094386;29;20311;-60
2024/03/01 01:28:15;;;;;;;21.03;11.53;;;;;;;;;;6094024;29;20310;-60
2024/03/01 01:31:19;;;;;;;23.30;12.03;;;;;;;;;;6094058;29;20302;-60
2024/03/01 01:34:23;;;;;;;21.67;11.10;;;;;;;;;;6093711;29;20298;-60
2024/03/01 01:37:27;;;;;;;25.77;15.13;;;;;;;;;;6091721;29;20584;-60
2024/03/01 01:40:31;;;;;;;18.53;11.93;;;;;;;;;;6093723;29;20527;-60
2024/03/01 01:43:42;;;;;;;19.90;11.00;;;;;;;;;;6094059;29;20299;-60
2024/03/01 01:46:50;;;;;;;22.40;11.40;;;;;;;;;;6093200;29;20707;-60
2024/03/01 01:49:54;;;;;;;18.90;11.37;;;;;;;;;;6093761;29;20296;-60
2024/03/01 01:52:57;;;;;;;23.20;11.63;;;;;;;;;;6093677;29;20330;-59
2024/03/01 01:56:02;;;;;;;23.13;11.93;;;;;;;;;;6092872;29;20305;-59
2024/03/01 01:59:08;;;;;;;24.53;12.03;;;;;;;;;;6093161;29;20298;-60
2024/03/01 02:02:12;;;;;;;24.07;11.97;;;;;;;;;;6093772;29;20457;-60
2024/03/01 02:05:16;;;;;;;18.80;11.40;;;;;;;;;;6092042;29;20315;-59
2024/03/01 02:08:20;;;;;;;25.77;11.80;;;;;;;;;;6093706;29;20393;-59
2024/03/01 02:11:25;;;;;;;20.37;11.67;;;;;;;;;;6101254;29;20607;-60
2024/03/01 02:14:30;;;;;;;23.07;11.43;;;;;;;;;;6139610;29;20305;-60
2024/03/01 02:17:34;;;;;;;17.80;10.40;;;;;;;;;;6140196;29;20305;-60
2024/03/01 02:20:40;;;;;;;24.33;11.70;;;;;;;;;;6139603;29;20297;-59
2024/03/01 02:23:45;;;;;;;23.13;11.27;;;;;;;;;;6139969;29;20313;-59
2024/03/01 02:26:49;;;;;;;21.00;10.90;;;;;;;;;;6139597;29;20300;-59
2024/03/01 02:29:52;;;;;;;21.10;10.90;;;;;;;;;;6139227;29;20297;-59
2024/03/01 02:32:56;;;;;;;20.90;11.13;;;;;;;;;;6139818;29;20305;-60
2024/03/01 02:36:00;;;;;;;22.43;11.40;;;;;;;;;;6139223;29;20296;-60
2024/03/01 02:39:16;;;;;;;21.20;11.67;;;;;;;;;;6139253;29;20297;-60
2024/03/01 02:42:20;;;;;;;22.70;11.33;;;;;;;;;;6139463;29;20288;-60
2024/03/01 02:45:24;;;;;;;19.47;10.70;;;;;;;;;;6139476;29;20462;-60
2024/03/01 02:48:28;;;;;;;27.60;11.90;;;;;;;;;;6138867;29;20317;-59
2024/03/01 02:51:32;;;;;;;23.60;11.03;;;;;;;;;;6139183;29;20301;-60
2024/03/01 02:54:37;;;;;;;19.17;10.13;;;;;;;;;;6138963;29;20305;-60
2024/03/01 02:57:41;;;;;;;20.67;11.10;;;;;;;;;;6138694;29;20287;-61
2024/03/01 03:00:44;;;;;;;21.83;10.97;;;;;;;;;;6138688;29;20295;-60
2024/03/01 03:03:49;;;;;;;28.43;11.93;;;;;;;;;;6139390;29;20246;-60
2024/03/01 03:06:53;;;;;;;24.80;11.80;;;;;;;;;;6138875;29;20307;-60
2024/03/01 03:10:03;;;;;;;23.00;11.37;;;;;;;;;;6138735;29;20297;-60
2024/03/01 03:13:07;;;;;;;25.00;12.37;;;;;;;;;;6121732;29;20549;-60
2024/03/01 03:16:11;;;;;;;23.37;12.53;;;;;;;;;;6115340;29;20301;-60
2024/03/01 03:19:15;;;;;;;28.53;11.77;;;;;;;;;;6115454;29;20309;-60
2024/03/01 03:22:19;;;;;;;22.80;11.47;;;;;;;;;;6115313;29;20302;-60
2024/03/01 03:25:25;;;;;;;21.23;11.30;;;;;;;;;;6114799;29;20311;-60
2024/03/01 03:28:29;;;;;;;24.63;12.00;;;;;;;;;;6115478;29;20398;-60
2024/03/01 03:31:33;;;;;;;25.43;12.00;;;;;;;;;;6115074;29;20299;-60
2024/03/01 03:34:37;;;;;;;23.53;12.03;;;;;;;;;;6114725;29;20298;-59
2024/03/01 03:37:41;;;;;;;24.10;12.77;;;;;;;;;;6115579;29;20586;-60
2024/03/01 03:40:47;;;;;;;22.87;11.70;;;;;;;;;;6114581;29;20308;-60
2024/03/01 03:43:50;;;;;;;26.20;12.53;;;;;;;;;;6115151;29;20299;-60
2024/03/01 03:46:54;;;;;;;25.80;12.17;;;;;;;;;;6114434;29;20309;-59
2024/03/01 03:49:58;;;;;;;24.27;12.80;;;;;;;;;;6114511;29;20302;-60
2024/03/01 03:53:02;;;;;;;25.17;11.93;;;;;;;;;;6115156;29;20305;-60
2024/03/01 03:56:08;;;;;;;27.17;12.53;;;;;;;;;;6114277;29;20322;-60
2024/03/01 03:59:12;;;;;;;22.90;11.33;;;;;;;;;;6115004;29;20302;-60
2024/03/01 04:02:16;;;;;;;30.67;13.20;;;;;;;;;;6123850;29;20301;-60
2024/03/01 04:05:21;;;;;;;28.03;13.37;;;;;;;;;;6133668;29;20304;-60
2024/03/01 04:08:26;;;;;;;26.63;12.17;;;;;;;;;;6095784;29;20303;-61
2024/03/01 04:11:31;;;;;;;30.73;13.57;;;;;;;;;;6124862;29;20293;-60
2024/03/01 04:14:35;;;;;;;30.30;13.70;;;;;;;;;;6143020;29;20479;-60
2024/03/01 04:17:41;;;;;;;29.80;13.10;;;;;;;;;;6143332;29;20298;-60
2024/03/01 04:20:45;;;;;;;28.73;14.20;;;;;;;;;;6122706;29;20484;-60
2024/03/01 04:23:49;;;;;;;28.30;12.73;;;;;;;;;;6118982;29;20302;-60
2024/03/01 04:26:54;;;;;;;34.47;14.13;;;;;;;;;;6119404;29;20332;-60
2024/03/01 04:29:59;;;;;;;32.33;13.73;;;;;;;;;;6118639;29;20459;-60
2024/03/01 04:33:04;;;;;;;27.07;13.97;;;;;;;;;;6118823;29;20298;-60
2024/03/01 04:36:08;;;;;;;25.10;12.70;;;;;;;;;;6125942;29;20599;-60
2024/03/01 04:39:14;;;;;;;28.33;12.13;;;;;;;;;;6142452;29;20474;-61
2024/03/01 04:42:19;;;;;;;22.50;11.97;;;;;;;;;;6142719;29;20294;-61
2024/03/01 04:45:23;;;;;;;23.90;12.90;;;;;;;;;;6141983;29;20301;-60
2024/03/01 04:48:27;;;;;;;27.53;13.20;;;;;;;;;;6141680;29;20311;-60
2024/03/01 04:51:30;;;;;;;29.95;17.08;;;;;;;;;;6141056;29;20463;-61
2024/03/01 04:54:34;;;;;;;27.00;12.87;;;;;;;;;;6142016;29;20563;-60
2024/03/01 04:57:40;;;;;;;27.97;13.40;;;;;;;;;;6141755;29;20307;-62
2024/03/01 05:00:44;;;;;;;22.33;12.40;;;;;;;;;;6141894;29;20306;-60
2024/03/01 05:03:47;;;;;;;26.90;12.97;;;;;;;;;;6141669;29;20335;-61
2024/03/01 05:06:52;;;;;;;23.43;12.87;;;;;;;;;;6142423;29;20533;-60
2024/03/01 05:09:55;;;;;;;19.67;11.97;;;;;;;;;;6137686;29;20394;-60
2024/03/01 05:13:02;;;;;;;25.10;12.63;;;;;;;;;;6118053;29;20303;-60
2024/03/01 05:16:07;;;;;;;21.17;11.90;;;;;;;;;;6118208;29;20299;-60
2024/03/01 05:19:11;;;;;;;23.03;12.10;;;;;;;;;;6117686;29;20290;-60
2024/03/01 05:22:16;;;;;;;25.63;12.07;;;;;;;;;;6118252;29;20492;-60
2024/03/01 05:25:20;;;;;;;22.90;12.20;;;;;;;;;;6118008;29;20319;-60
2024/03/01 05:28:25;;;;;;;27.13;11.83;;;;;;;;;;6117584;29;20298;-60
2024/03/01 05:31:44;;;;;;;22.97;11.67;;;;;;;;;;6118242;29;20300;-60
2024/03/01 05:34:48;;;;;;;20.23;11.43;;;;;;;;;;6117642;29;20303;-61
2024/03/01 05:37:51;;;;;;;23.77;11.57;;;;;;;;;;6117520;29;20536;-61
2024/03/01 05:40:58;;;;;;;29.83;16.60;;;;;;;;;;6116369;29;20468;-61
2024/03/01 05:44:07;;;;;;;29.70;13.97;;;;;;;;;;6117285;29;20304;-60
2024/03/01 05:47:11;;;;;;;22.60;13.23;;;;;;;;;;6117517;29;20318;-61
2024/03/01 05:50:16;;;;;;;27.67;12.90;;;;;;;;;;6116965;29;20303;-61
2024/03/01 05:53:20;;;;;;;19.67;12.03;;;;;;;;;;6116502;29;20548;-60
2024/03/01 05:56:25;;;;;;;22.50;12.50;;;;;;;;;;6117365;29;20303;-60
2024/03/01 05:59:31;;;;;;;27.33;12.87;;;;;;;;;;6116641;29;20300;-60
2024/03/01 06:02:35;;;;;;;25.43;12.63;;;;;;;;;;6117231;29;20323;-60
2024/03/01 06:05:39;;;;;;;25.50;12.63;;;;;;;;;;6116792;29;20478;-60
2024/03/01 06:08:42;;;;;;;23.63;12.33;;;;;;;;;;6116816;29;20490;-60
2024/03/01 06:11:47;;;;;;;26.93;11.87;;;;;;;;;;6135926;29;20322;-59
2024/03/01 06:14:54;;;;;;;28.17;12.67;;;;;;;;;;6140326;29;20306;-59
2024/03/01 06:17:58;;;;;;;24.90;12.33;;;;;;;;;;6140083;29;20301;-60
2024/03/01 06:21:03;;;;;;;24.93;12.47;;;;;;;;;;6140549;29;20425;-60
2024/03/01 06:24:07;;;;;;;23.97;12.40;;;;;;;;;;6139039;29;20297;-60
2024/03/01 06:27:11;;;;;;;23.53;12.40;;;;;;;;;;6140335;29;20307;-60
2024/03/01 06:30:16;;;;;;;26.97;12.70;;;;;;;;;;6139600;29;20298;-59
2024/03/01 06:33:20;;;;;;;26.27;12.53;;;;;;;;;;6139710;29;20298;-60
2024/03/01 06:36:24;;;;;;;28.33;12.83;;;;;;;;;;6140161;29;20300;-60
2024/03/01 06:39:29;;;;;;;23.17;12.10;;;;;;;;;;6139486;29;20540;-60
2024/03/01 06:42:32;;;;;;;26.73;12.60;;;;;;;;;;6140251;29;20468;-60
2024/03/01 06:45:38;;;;;;;27.60;12.57;;;;;;;;;;6139404;29;20295;-60
2024/03/01 06:48:42;;;;;;;27.50;13.47;;;;;;;;;;6138650;29;20303;-61
2024/03/01 06:51:49;;;;;;;26.77;12.70;;;;;;;;;;6139666;29;20534;-60
2024/03/01 06:54:53;;;;;;;27.63;13.57;;;;;;;;;;6138258;29;20298;-60
2024/03/01 06:57:58;;;;;;;28.07;13.03;;;;;;;;;;6138055;29;20295;-60
2024/03/01 07:01:05;;;;;;;29.20;13.60;;;;;;;;;;6139655;29;20342;-60
2024/03/01 07:04:13;;;;;;;26.10;13.50;;;;;;;;;;6138035;29;20342;-61
2024/03/01 07:07:18;;;;;;;27.37;13.80;;;;;;;;;;6139697;29;20582;-60
2024/03/01 07:10:22;;;;;;;30.27;13.87;;;;;;;;;;6131625;29;20307;-61
2024/03/01 07:13:26;;;;;;;28.37;13.80;;;;;;;;;;6115330;29;20503;-60
2024/03/01 07:16:31;;;;;;;26.57;12.83;;;;;;;;;;6115752;29;20486;-60
2024/03/01 07:19:35;;;;;;;32.87;13.43;;;;;;;;;;6115341;29;20408;-60
2024/03/01 07:22:40;;;;;;;28.63;12.73;;;;;;;;;;6115787;29;20311;-60
2024/03/01 07:25:43;;;;;;;31.07;14.07;;;;;;;;;;6115367;29;20294;-60
2024/03/01 07:28:48;;;;;;;33.10;14.30;;;;;;;;;;6114975;29;20318;-61
2024/03/01 07:31:53;;;;;;;33.73;14.30;;;;;;;;;;6115478;29;20294;-61
2024/03/01 07:34:57;;;;;;;35.07;14.47;;;;;;;;;;6115231;29;20401;-60
2024/03/01 07:38:01;;;;;;;38.07;14.27;;;;;;;;;;6114749;29;20482;-61
2024/03/01 07:41:05;;;;;;;36.27;14.33;;;;;;;;;;6115773;29;20302;-61
2024/03/01 07:44:09;;;;;;;29.30;13.93;;;;;;;;;;6115090;29;20299;-61
2024/03/01 07:47:14;;;;;;;30.23;14.03;;;;;;;;;;6115155;29;20314;-60
2024/03/01 07:50:20;;;;;;;29.77;14.27;;;;;;;;;;6115071;29;20303;-60
2024/03/01 07:53:24;;;;;;;33.23;14.13;;;;;;;;;;6114744;29;20312;-60
2024/03/01 07:56:28;;;;;;;34.70;14.17;;;;;;;;;;6115220;29;20315;-61
2024/03/01 07:59:33;;;;;;;28.87;13.30;;;;;;;;;;6114378;29;20323;-60
2024/03/01 08:02:38;;;;;;;33.33;13.63;;;;;;;;;;6114887;29;20298;-60
2024/03/01 08:05:42;;;;;;;32.63;14.90;;;;;;;;;;6114147;29;20295;-61
2024/03/01 08:08:46;;;;;;;32.67;14.53;;;;;;;;;;6114389;29;20301;-60
2024/03/01 08:11:50;;;;;;;32.67;13.77;;;;;;;;;;6134196;29;20310;-60
2024/03/01 08:14:54;;;;;;;37.23;14.17;;;;;;;;;;6137824;29;20302;-60
2024/03/01 08:18:00;;;;;;;34.20;14.23;;;;;;;;;;6138079;29;20301;-60
2024/03/01 08:21:05;;;;;;;31.60;14.53;;;;;;;;;;6138600;29;20302;-61
2024/03/01 08:24:10;;;;;;;31.13;14.17;;;;;;;;;;6136655;29;20306;-61
2024/03/01 08:27:15;;;;;;;39.23;14.50;;;;;;;;;;6138770;29;20302;-61
2024/03/01 08:30:35;;;;;;;36.83;14.40;;;;;;;;;;6137986;29;20306;-60
2024/03/01 08:33:41;;;;;;;36.00;14.03;;;;;;;;;;6137249;29;20575;-61
2024/03/01 08:36:45;;;;;;;38.33;14.53;;;;;;;;;;6138152;29;20240;-60
2024/03/01 08:39:51;;;;;;;41.73;14.33;;;;;;;;;;6137615;29;20303;-60
2024/03/01 08:42:55;;;;;;;43.47;15.00;;;;;;;;;;6138105;29;20245;-60
2024/03/01 08:46:01;;;;;;;43.33;14.20;;;;;;;;;;6139871;29;20313;-60
2024/03/01 08:49:57;;;;;;;39.37;14.70;;;;;;;;;;6142599;29;20306;-60
2024/03/01 08:53:01;;;;;;;37.63;14.93;;;;;;;;;;6069169;29;20304;-61
2024/03/01 08:56:06;;;;;;;37.63;14.57;;;;;;;;;;6142279;29;20318;-61
2024/03/01 08:59:35;;;;;;;41.23;15.47;;;;;;;;;;6141743;29;20295;-60
2024/03/01 09:02:48;;;;;;;37.93;14.33;;;;;;;;;;6142647;29;20306;-61
2024/03/01 09:05:59;;;;;;;38.80;15.20;;;;;;;;;;6141628;29;20296;-60
2024/03/01 09:09:03;;;;;;;40.33;15.93;;;;;;;;;;6141886;29;20337;-60
2024/03/01 09:12:09;;;;;;;38.50;15.73;;;;;;;;;;6120715;29;20299;-60
2024/03/01 09:15:16;;;;;;;41.67;14.90;;;;;;;;;;6117908;29;20437;-61
2024/03/01 09:18:45;;;;;;;37.43;14.50;;;;;;;;;;6117946;29;20302;-60
2024/03/01 09:21:52;;;;;;;41.17;15.20;;;;;;;;;;6117005;29;20548;-61
2024/03/01 09:24:56;;;;;;;47.60;15.77;;;;;;;;;;6117985;29;20469;-61
2024/03/01 09:28:01;;;;;;;41.17;15.50;;;;;;;;;;6117791;29;20454;-60
2024/03/01 09:31:05;;;;;;;41.80;14.87;;;;;;;;;;6117953;29;20299;-60
2024/03/01 09:34:10;;;;;;;35.10;14.00;;;;;;;;;;6117385;29;20295;-60
2024/03/01 09:37:20;;;;;;;37.70;14.27;;;;;;;;;;6117949;29;20524;-59
2024/03/01 09:41:16;;;;;;;40.90;14.53;;;;;;;;;;6117492;29;20591;-60
2024/03/01 09:44:40;;;;;;;38.13;14.40;;;;;;;;;;6116382;29;20460;-59
2024/03/01 09:47:57;;;;;;;33.40;13.37;;;;;;;;;;6117667;29;20475;-60
2024/03/01 09:51:14;;;;;;;33.23;13.63;;;;;;;;;;6116670;29;20303;-60
2024/03/01 09:54:27;;;;;;;33.03;12.60;;;;;;;;;;6117241;29;20572;-60
2024/03/01 09:57:38;;;;;;;27.30;12.53;;;;;;;;;;6116913;29;20311;-60
2024/03/01 10:00:49;;;;;;;32.87;11.00;;;;;;;;;;6116188;29;20307;-60
2024/03/01 10:04:05;;;;;;;24.53;11.47;;;;;;;;;;6116760;29;20299;-60
2024/03/01 10:07:16;;;;;;;27.40;11.23;;;;;;;;;;6117193;29;20291;-61
2024/03/01 10:10:41;;;;;;;21.33;10.53;;;;;;;;;;6124407;29;20295;-60
2024/03/01 10:13:58;;;;;;;22.13;10.33;;;;;;;;;;6140542;29;20294;-60
2024/03/01 10:17:11;;;;;;;21.80;9.73;;;;;;;;;;6140790;29;20307;-60
2024/03/01 10:20:29;;;;;;;23.03;10.43;;;;;;;;;;6140696;29;20311;-60
2024/03/01 10:23:45;;;;;;;20.00;8.70;;;;;;;;;;6140911;29;20303;-61
2024/03/01 10:26:57;;;;;;;20.10;9.73;;;;;;;;;;6140805;29;20291;-59
2024/03/01 10:30:05;;;;;;;21.07;10.00;;;;;;;;;;6140331;29;20318;-61
2024/03/01 10:33:20;;;;;;;22.70;9.47;;;;;;;;;;6140007;29;20298;-61
2024/03/01 10:36:44;;;;;;;21.00;9.27;;;;;;;;;;6140434;29;20311;-61
2024/03/01 10:40:03;;;;;;;18.43;8.87;;;;;;;;;;6139018;29;20297;-61
2024/03/01 10:43:13;;;;;;;18.43;9.50;;;;;;;;;;6139445;29;20586;-59
2024/03/01 10:46:21;;;;;;;18.53;9.20;;;;;;;;;;6140319;29;20454;-60
2024/03/01 10:49:27;;;;;;;22.63;10.80;;;;;;;;;;6139825;29;20416;-60
2024/03/01 10:52:34;;;;;;;27.37;10.40;;;;;;;;;;6139879;29;20394;-61
2024/03/01 10:55:39;;;;;;;23.43;9.83;;;;;;;;;;6139441;29;20302;-61
2024/03/01 10:58:47;;;;;;;22.37;10.00;;;;;;;;;;6139076;29;20497;-61
2024/03/01 11:01:56;;;;;;;31.03;10.53;;;;;;;;;;6139519;29;20572;-60
2024/03/01 11:05:04;;;;;;;27.33;10.87;;;;;;;;;;6139293;29;20298;-60
2024/03/01 11:08:21;;;;;;;26.47;10.50;;;;;;;;;;6139040;29;20295;-60
2024/03/01 11:11:29;;;;;;;25.57;10.70;;;;;;;;;;6123479;29;20588;-61
2024/03/01 11:14:35;;;;;;;23.73;10.60;;;;;;;;;;6115090;29;20324;-61
2024/03/01 11:17:41;;;;;;;29.50;9.93;;;;;;;;;;6115717;29;20311;-60
2024/03/01 11:20:51;;;;;;;25.27;10.50;;;;;;;;;;6115191;29;20299;-59
2024/03/01 11:23:58;;;;;;;28.15;10.38;;;;;;;;;;6115105;29;20469;-59
2024/03/01 11:27:04;;;;;;;28.23;10.93;;;;;;;;;;6115725;29;20608;-61
2024/03/01 11:30:13;;;;;;;26.30;10.60;;;;;;;;;;6115181;29;20316;-61
2024/03/01 11:33:18;;;;;;;30.33;11.33;;;;;;;;;;6115384;29;20307;-60
2024/03/01 11:36:41;;;;;;;26.27;10.97;;;;;;;;;;6115606;29;20304;-60
2024/03/01 11:39:51;;;;;;;23.57;10.83;;;;;;;;;;6113778;29;20323;-60
2024/03/01 11:43:03;;;;;;;22.93;11.53;;;;;;;;;;6114778;29;20243;-60
2024/03/01 11:46:35;;;;;;;28.07;11.73;;;;;;;;;;6115446;29;20299;-60
2024/03/01 11:49:55;;;;;;;25.10;10.57;;;;;;;;;;6115183;29;20310;-59
2024/03/01 11:53:04;;;;;;;26.77;11.83;;;;;;;;;;6114901;29;20303;-60
2024/03/01 11:56:32;;;;;;;29.63;11.80;;;;;;;;;;6115122;29;20291;-60
2024/03/01 11:59:48;;;;;;;26.63;10.90;;;;;;;;;;6114525;29;20295;-60
2024/03/01 12:03:11;;;;;;;23.77;11.70;;;;;;;;;;6114944;29;20595;-60
2024/03/01 12:06:23;;;;;;;26.33;11.80;;;;;;;;;;6115147;29;20556;-60
2024/03/01 12:09:36;;;;;;;24.67;11.53;;;;;;;;;;6115044;29;20298;-60
2024/03/01 12:12:45;;;;;;;28.50;11.10;;;;;;;;;;6137829;29;20275;-60
2024/03/01 12:15:56;;;;;;;26.30;12.07;;;;;;;;;;6138227;29;20310;-61
2024/03/01 12:19:11;;;;;;;22.23;10.67;;;;;;;;;;6137998;29;20375;-61
2024/03/01 12:22:32;;;;;;;24.97;10.50;;;;;;;;;;6140989;29;20350;-61
2024/03/01 12:25:37;;;;;;;27.80;10.80;;;;;;;;;;6143162;29;20302;-60
2024/03/01 12:28:51;;;;;;;24.00;11.50;;;;;;;;;;6142753;29;20287;-59
2024/03/01 12:32:01;;;;;;;25.30;10.70;;;;;;;;;;6143085;29;20479;-59
2024/03/01 12:35:19;;;;;;;27.53;11.70;;;;;;;;;;6142307;29;20299;-61
2024/03/01 12:38:26;;;;;;;21.20;10.63;;;;;;;;;;6142283;29;20295;-60
2024/03/01 12:41:44;;;;;;;24.10;10.90;;;;;;;;;;6142701;29;20311;-60
2024/03/01 12:44:55;;;;;;;25.97;11.80;;;;;;;;;;6142192;29;20298;-60
2024/03/01 12:48:08;;;;;;;22.93;10.50;;;;;;;;;;6142428;29;20303;-60
2024/03/01 12:51:17;;;;;;;27.23;11.30;;;;;;;;;;6142939;29;20580;-60
2024/03/01 12:54:28;;;;;;;23.33;10.63;;;;;;;;;;6142289;29;20303;-60
2024/03/01 12:57:37;;;;;;;24.73;10.97;;;;;;;;;;6142287;29;20598;-60
2024/03/01 13:00:49;;;;;;;26.93;11.47;;;;;;;;;;6141036;29;20330;-61
2024/03/01 13:04:01;;;;;;;26.52;10.40;;;;;;;;;;6142302;29;20295;-61
2024/03/01 13:07:08;;;;;;;26.83;10.38;;;;;;;;;;6142996;29;20294;-61
2024/03/01 13:10:17;;;;;;;23.27;9.50;;;;;;;;;;6136140;29;20295;-60
2024/03/01 13:13:23;;;;;;;25.13;10.60;;;;;;;;;;6118761;29;20304;-61
2024/03/01 13:16:27;;;;;;;28.03;11.07;;;;;;;;;;6118150;29;20477;-61
2024/03/01 13:19:37;;;;;;;23.63;9.77;;;;;;;;;;6110971;29;20312;-61
2024/03/01 13:22:45;;;;;;;29.30;10.60;;;;;;;;;;6095344;29;20592;-60
2024/03/01 13:25:57;;;;;;;21.60;9.67;;;;;;;;;;6094526;29;20392;-59
2024/03/01 13:29:07;;;;;;;22.27;9.17;;;;;;;;;;6094060;29;20376;-60
2024/03/01 13:32:12;;;;;;;22.57;9.97;;;;;;;;;;6094518;29;20300;-59
2024/03/01 13:35:16;;;;;;;25.47;10.20;;;;;;;;;;6093756;29;20619;-60
2024/03/01 13:38:23;;;;;;;21.47;9.47;;;;;;;;;;6094085;29;20305;-60
2024/03/01 13:41:31;;;;;;;18.97;9.03;;;;;;;;;;6094428;29;20483;-60
2024/03/01 13:44:38;;;;;;;21.47;8.97;;;;;;;;;;6094030;29;20383;-60
2024/03/01 13:47:46;;;;;;;17.90;8.70;;;;;;;;;;6094361;29;20313;-59
2024/03/01 13:50:50;;;;;;;16.67;8.60;;;;;;;;;;6093819;29;20300;-60
2024/03/01 13:53:55;;;;;;;15.67;8.43;;;;;;;;;;6094002;29;20300;-60
2024/03/01 13:56:59;;;;;;;17.90;8.47;;;;;;;;;;6094451;29;20294;-61
2024/03/01 14:00:03;;;;;;;19.93;9.00;;;;;;;;;;6093800;29;20303;-61
2024/03/01 14:03:14;;;;;;;17.90;8.83;;;;;;;;;;6094839;29;20304;-60
2024/03/01 14:06:22;;;;;;;15.20;8.33;;;;;;;;;;6093843;29;20300;-60
2024/03/01 14:09:29;;;;;;;13.50;7.60;;;;;;;;;;6094320;29;20301;-60
2024/03/01 14:12:33;;;;;;;17.43;8.27;;;;;;;;;;6140576;29;20306;-60
2024/03/01 14:15:37;;;;;;;18.57;8.60;;;;;;;;;;6140039;29;20492;-60
2024/03/01 14:18:41;;;;;;;18.93;8.60;;;;;;;;;;6139640;29;20318;-61
2024/03/01 14:21:45;;;;;;;15.77;8.60;;;;;;;;;;6140151;29;20558;-61
2024/03/01 14:24:50;;;;;;;20.63;9.27;;;;;;;;;;6140125;29;20622;-61
2024/03/01 14:27:56;;;;;;;16.13;8.80;;;;;;;;;;6139920;29;20240;-61
2024/03/01 14:31:00;;;;;;;17.23;7.68;;;;;;;;;;6140599;29;20314;-61
2024/03/01 14:34:04;;;;;;;13.63;7.87;;;;;;;;;;6139946;29;20303;-61
2024/03/01 14:37:10;;;;;;;16.20;8.67;;;;;;;;;;6139404;29;20554;-61
2024/03/01 14:40:17;;;;;;;16.43;9.13;;;;;;;;;;6140193;29;20299;-61
2024/03/01 14:43:21;;;;;;;17.80;8.87;;;;;;;;;;6138030;29;20295;-61
2024/03/01 14:46:29;;;;;;;16.30;8.20;;;;;;;;;;6140417;29;20306;-60
2024/03/01 14:49:34;;;;;;;17.73;9.80;;;;;;;;;;6140032;29;20291;-60
2024/03/01 14:52:39;;;;;;;20.80;9.37;;;;;;;;;;6140172;29;20311;-60
2024/03/01 14:55:50;;;;;;;20.07;9.53;;;;;;;;;;6139260;29;20520;-60
2024/03/01 14:58:56;;;;;;;17.73;9.57;;;;;;;;;;6139474;29;20291;-60
2024/03/01 15:02:00;;;;;;;20.95;9.57;;;;;;;;;;6139867;29;20302;-60
2024/03/01 15:05:05;;;;;;;19.20;9.37;;;;;;;;;;6138960;29;20294;-60
2024/03/01 15:08:11;;;;;;;17.30;8.37;;;;;;;;;;6138868;29;20314;-60
2024/03/01 15:11:26;;;;;;;21.67;8.87;;;;;;;;;;6125215;29;20292;-60
2024/03/01 15:14:29;;;;;;;16.73;8.53;;;;;;;;;;6115492;29;20304;-60
2024/03/01 15:17:33;;;;;;;17.20;8.47;;;;;;;;;;6115862;29;20457;-60
2024/03/01 15:20:39;;;;;;;14.43;8.43;;;;;;;;;;6115193;29;20302;-61
2024/03/01 15:23:44;;;;;;;15.57;8.60;;;;;;;;;;6115299;29;20300;-59
2024/03/01 15:26:50;;;;;;;13.30;7.93;;;;;;;;;;6115681;29;20308;-60
2024/03/01 15:29:54;;;;;;;16.50;9.03;;;;;;;;;;6115215;29;20614;-59
2024/03/01 15:32:59;;;;;;;16.10;8.30;;;;;;;;;;6115311;29;20300;-60
2024/03/01 15:36:03;;;;;;;16.67;8.40;;;;;;;;;;6115709;29;20544;-59
2024/03/01 15:39:09;;;;;;;13.17;7.80;;;;;;;;;;6114984;29;20295;-60
2024/03/01 15:42:15;;;;;;;14.03;8.43;;;;;;;;;;6115418;29;20307;-59
2024/03/01 15:45:18;;;;;;;14.03;7.90;;;;;;;;;;6114575;29;20295;-59
2024/03/01 15:48:23;;;;;;;16.77;9.13;;;;;;;;;;6114428;29;20319;-60
2024/03/01 15:51:27;;;;;;;17.03;8.50;;;;;;;;;;6115732;29;20324;-59
2024/03/01 15:54:31;;;;;;;16.37;9.30;;;;;;;;;;6115111;29;20308;-59
2024/03/01 15:57:38;;;;;;;13.93;8.13;;;;;;;;;;6119646;29;20295;-61
2024/03/01 16:00:42;;;;;;;16.80;8.43;;;;;;;;;;6118466;29;20299;-59
2024/03/01 16:03:47;;;;;;;14.37;8.70;;;;;;;;;;6119208;29;20307;-60
2024/03/01 16:06:51;;;;;;;15.67;8.20;;;;;;;;;;6103341;29;20253;-61
2024/03/01 16:09:55;;;;;;;14.40;7.95;;;;;;;;;;6123454;29;20290;-60
2024/03/01 16:13:01;;;;;;;14.37;7.73;;;;;;;;;;6143241;29;20302;-60
2024/03/01 16:16:06;;;;;;;13.93;7.87;;;;;;;;;;6142254;29;20578;-60
2024/03/01 16:19:11;;;;;;;12.50;7.70;;;;;;;;;;6143122;29;20310;-59
2024/03/01 16:22:16;;;;;;;12.70;7.77;;;;;;;;;;6143632;29;20321;-60
2024/03/01 16:25:20;;;;;;;13.27;7.82;;;;;;;;;;6142817;29;20303;-59
2024/03/01 16:28:26;;;;;;;12.10;8.43;;;;;;;;;;6142628;29;20299;-59
2024/03/01 16:31:30;;;;;;;13.70;7.57;;;;;;;;;;6143732;29;20298;-60
2024/03/01 16:34:34;;;;;;;9.43;7.30;;;;;;;;;;6142559;29;20291;-60
2024/03/01 16:37:38;;;;;;;11.50;7.13;;;;;;;;;;6143296;29;20291;-60
2024/03/01 16:40:42;;;;;;;10.57;7.60;;;;;;;;;;6142297;29;20306;-60
2024/03/01 16:43:48;;;;;;;10.70;7.33;;;;;;;;;;6142654;29;20337;-61
2024/03/01 16:46:53;;;;;;;13.00;6.97;;;;;;;;;;6143329;29;20314;-62
2024/03/01 16:50:00;;;;;;;12.37;7.07;;;;;;;;;;6142560;29;20306;-60
2024/03/01 16:53:05;;;;;;;11.17;7.50;;;;;;;;;;6142256;29;20295;-61
2024/03/01 16:56:08;;;;;;;9.40;6.93;;;;;;;;;;6142999;29;20310;-61
2024/03/01 16:59:14;;;;;;;8.57;7.13;;;;;;;;;;6142157;29;20511;-60
2024/03/01 17:02:24;;;;;;;9.93;7.20;;;;;;;;;;6142738;29;20299;-60
2024/03/01 17:05:43;;;;;;;9.53;6.67;;;;;;;;;;6142108;29;20311;-60
2024/03/01 17:08:47;;;;;;;10.37;6.70;;;;;;;;;;6142083;29;20298;-60
2024/03/01 17:11:55;;;;;;;10.43;7.03;;;;;;;;;;6123045;29;20312;-59
2024/03/01 17:15:00;;;;;;;11.60;6.70;;;;;;;;;;6118507;29;20307;-60
2024/03/01 17:18:11;;;;;;;9.00;6.43;;;;;;;;;;6118321;29;20307;-60
2024/03/01 17:21:15;;;;;;;9.73;6.57;;;;;;;;;;6118919;29;20304;-59
2024/03/01 17:24:18;;;;;;;8.63;6.93;;;;;;;;;;6118340;29;20315;-60
2024/03/01 17:27:22;;;;;;;12.30;6.60;;;;;;;;;;6118814;29;20311;-60
2024/03/01 17:30:28;;;;;;;8.07;6.33;;;;;;;;;;6118021;29;20315;-60
2024/03/01 17:33:31;;;;;;;11.30;6.60;;;;;;;;;;6118246;29;20303;-61
2024/03/01 17:36:35;;;;;;;8.00;6.27;;;;;;;;;;6118615;29;20414;-60
2024/03/01 17:39:39;;;;;;;10.20;7.47;;;;;;;;;;6117171;29;20391;-61
2024/03/01 17:42:43;;;;;;;10.57;8.00;;;;;;;;;;6117931;29;20244;-61
2024/03/01 17:45:48;;;;;;;10.50;7.30;;;;;;;;;;6117919;29;20591;-59
2024/03/01 17:48:53;;;;;;;10.47;6.83;;;;;;;;;;6117927;29;20314;-60
2024/03/01 17:51:57;;;;;;;11.80;6.80;;;;;;;;;;6117886;29;20252;-59
2024/03/01 17:55:01;;;;;;;12.10;6.53;;;;;;;;;;6117465;29;20564;-61
2024/03/01 17:58:05;;;;;;;8.00;6.50;;;;;;;;;;6116919;29;20374;-59
2024/03/01 18:01:10;;;;;;;11.30;6.97;;;;;;;;;;6117549;29;20477;-60
2024/03/01 18:04:14;;;;;;;14.53;7.67;;;;;;;;;;6117123;29;20295;-62
2024/03/01 18:07:20;;;;;;;12.10;7.30;;;;;;;;;;6117827;29;20294;-62
2024/03/01 18:10:24;;;;;;;10.83;7.17;;;;;;;;;;6124306;29;20326;-61
2024/03/01 18:13:30;;;;;;;10.57;7.80;;;;;;;;;;6140714;29;20294;-61